createdAt,value
2022-10-25T00:10:37.936Z,11.82
2022-10-25T00:40:40.728Z,11.57
2022-10-25T01:10:45.483Z,11.71
2022-10-25T01:40:48.395Z,11.73
2022-10-25T02:10:52.482Z,11.52
2022-10-25T02:40:55.352Z,11.26
2022-10-25T03:10:59.434Z,11.03
2022-10-25T03:41:02.293Z,10.93
2022-10-25T04:11:06.399Z,10.98
2022-10-25T04:41:09.150Z,11.06
2022-10-25T05:11:12.473Z,11.31
2022-10-25T05:41:15.313Z,11.33
2022-10-25T06:11:19.319Z,11.46
2022-10-25T06:41:22.284Z,11.40
2022-10-25T07:11:25.180Z,11.49
2022-10-25T07:41:28.753Z,12.12
2022-10-25T08:11:32.158Z,12.48
2022-10-25T08:41:35.910Z,12.98
2022-10-25T09:11:38.878Z,13.68
2022-10-25T09:41:42.652Z,14.00
2022-10-25T10:11:45.742Z,14.16
2022-10-25T10:41:48.813Z,14.30
2022-10-25T11:11:51.719Z,14.41
2022-10-25T11:41:54.770Z,14.69
2022-10-25T12:11:57.697Z,14.91
2022-10-25T12:42:01.496Z,15.15
2022-10-25T13:12:04.871Z,14.19
2022-10-25T13:42:08.092Z,13.54
2022-10-25T14:12:13.034Z,13.77
2022-10-25T14:42:17.482Z,14.03
2022-10-25T15:12:21.435Z,13.91
2022-10-25T15:42:24.713Z,13.75
2022-10-25T16:12:28.822Z,13.34
2022-10-25T16:42:32.691Z,12.64
2022-10-25T17:12:37.350Z,12.41
2022-10-25T17:42:40.636Z,12.06
2022-10-25T18:12:44.153Z,11.77
2022-10-25T18:42:47.632Z,11.73
2022-10-25T19:12:51.020Z,11.77
2022-10-25T19:42:54.580Z,11.23
2022-10-25T20:12:59.803Z,10.58
2022-10-25T20:43:02.569Z,10.33
2022-10-25T21:13:05.983Z,10.11
2022-10-25T21:43:09.015Z,9.78
2022-10-25T22:13:12.461Z,9.52
2022-10-25T22:43:15.949Z,9.16
2022-10-25T23:13:18.787Z,8.78
2022-10-25T23:43:22.201Z,8.34
